createdAt,value
2022-11-21T00:01:19.917Z,96793.91
2022-11-21T00:03:48.469Z,96788.13
2022-11-21T00:06:17.641Z,96783.66
2022-11-21T00:08:46.556Z,96784.63
2022-11-21T00:11:15.356Z,96771.03
2022-11-21T00:13:44.291Z,96770.28
2022-11-21T00:16:15.963Z,96770.81
2022-11-21T00:18:44.543Z,96764.44
2022-11-21T00:21:16.569Z,96756.34
2022-11-21T00:23:45.987Z,96747.50
2022-11-21T00:26:16.816Z,96750.88
2022-11-21T00:28:45.601Z,96747.72
2022-11-21T00:31:24.273Z,96744.06
2022-11-21T00:33:52.322Z,96742.31
2022-11-21T00:36:20.424Z,96740.94
2022-11-21T00:38:48.630Z,96733.25
2022-11-21T00:41:16.824Z,96733.59
2022-11-21T00:43:44.891Z,96725.78
2022-11-21T00:46:12.990Z,96729.09
2022-11-21T00:48:41.172Z,96718.94
2022-11-21T00:51:09.277Z,96726.72
2022-11-21T00:53:37.339Z,96725.72
2022-11-21T00:56:05.558Z,96721.41
2022-11-21T00:58:33.742Z,96709.53
2022-11-21T01:01:12.114Z,96714.19
2022-11-21T01:03:40.843Z,96723.03
2022-11-21T01:06:12.885Z,96723.69
2022-11-21T01:08:43.724Z,96723.84
2022-11-21T01:11:16.380Z,96727.31
2022-11-21T01:13:45.517Z,96723.13
2022-11-21T01:16:17.698Z,96721.47
2022-11-21T01:18:46.748Z,96719.28
2022-11-21T01:21:19.390Z,96723.69
2022-11-21T01:23:48.646Z,96725.31
2022-11-21T01:26:24.773Z,96728.38
2022-11-21T01:28:53.705Z,96728.50
2022-11-21T01:31:28.382Z,96734.34
2022-11-21T01:33:59.473Z,96736.63
2022-11-21T01:36:33.436Z,96733.59
2022-11-21T01:39:04.505Z,96734.44
2022-11-21T01:41:37.288Z,96723.84
2022-11-21T01:44:44.706Z,96712.28
2022-11-21T01:47:13.418Z,96723.28
2022-11-21T01:49:42.431Z,96717.81
2022-11-21T01:52:28.395Z,96710.50
2022-11-21T01:55:14.735Z,96716.56
2022-11-21T01:57:46.538Z,96723.50
2022-11-21T02:00:26.842Z,96718.09
2022-11-21T02:03:05.641Z,96711.81
2022-11-21T02:05:37.474Z,96715.84
2022-11-21T02:08:13.251Z,96710.56
2022-11-21T02:11:09.606Z,96709.00
2022-11-21T02:13:37.492Z,96708.50
2022-11-21T02:16:06.564Z,96721.41
2022-11-21T02:18:34.520Z,96716.75
2022-11-21T02:21:29.287Z,96707.16
2022-11-21T02:24:21.174Z,96708.16
2022-11-21T02:26:49.624Z,96704.00
2022-11-21T02:29:17.636Z,96696.41
2022-11-21T02:31:45.391Z,96699.94
2022-11-21T02:34:13.307Z,96689.84
2022-11-21T02:36:46.607Z,96678.53
2022-11-21T02:39:27.456Z,96681.50
2022-11-21T02:42:05.648Z,96683.69
2022-11-21T02:44:43.747Z,96671.31
2022-11-21T02:47:11.474Z,96675.75
2022-11-21T02:49:54.074Z,96679.06
2022-11-21T02:52:21.863Z,96674.63
2022-11-21T02:54:49.676Z,96674.13
2022-11-21T02:57:17.393Z,96673.97
2022-11-21T02:59:45.168Z,96656.69
2022-11-21T03:02:12.956Z,96665.69
2022-11-21T03:04:40.718Z,96657.38
2022-11-21T03:07:08.623Z,96668.50
2022-11-21T03:10:16.267Z,96660.88
2022-11-21T03:12:44.262Z,96660.38
2022-11-21T03:15:15.342Z,96674.03
2022-11-21T03:17:43.650Z,96668.22
2022-11-21T03:20:11.831Z,96662.56
2022-11-21T03:22:39.647Z,96660.56
2022-11-21T03:25:07.851Z,96665.59
2022-11-21T03:27:35.599Z,96658.91
2022-11-21T03:30:03.766Z,96661.72
2022-11-21T03:32:31.497Z,96665.19
2022-11-21T03:34:59.238Z,96668.81
2022-11-21T03:37:26.953Z,96664.16
2022-11-21T03:39:54.722Z,96654.88
2022-11-21T03:42:22.452Z,96651.41
2022-11-21T03:44:50.192Z,96649.22
2022-11-21T03:47:17.933Z,96646.22
2022-11-21T03:49:45.699Z,96650.81
2022-11-21T03:52:13.401Z,96660.09
2022-11-21T03:54:41.258Z,96657.09
2022-11-21T03:57:09.020Z,96649.75
2022-11-21T03:59:36.792Z,96646.59
2022-11-21T04:02:04.617Z,96655.31
2022-11-21T04:04:32.443Z,96656.97
2022-11-21T04:07:00.308Z,96651.66
2022-11-21T04:09:28.117Z,96641.53
2022-11-21T04:11:55.834Z,96653.97
2022-11-21T04:14:23.596Z,96645.81
2022-11-21T04:16:51.342Z,96648.63
2022-11-21T04:19:19.079Z,96656.97
2022-11-21T04:21:46.805Z,96652.31
2022-11-21T04:24:14.624Z,96642.47
2022-11-21T04:26:42.301Z,96643.25
2022-11-21T04:29:10.178Z,96648.19
2022-11-21T04:31:37.898Z,96654.81
2022-11-21T04:34:05.667Z,96647.75
2022-11-21T04:36:33.427Z,96654.53
2022-11-21T04:39:01.242Z,96648.59
2022-11-21T04:41:29.076Z,96652.22
2022-11-21T04:43:56.804Z,96652.72
2022-11-21T04:46:24.596Z,96652.31
2022-11-21T04:48:52.345Z,96653.34
2022-11-21T04:51:20.108Z,96653.63
2022-11-21T04:53:47.833Z,96653.31
2022-11-21T04:56:16.624Z,96650.66
2022-11-21T04:58:44.951Z,96644.97
2022-11-21T05:01:12.876Z,96650.34
2022-11-21T05:03:40.710Z,96653.00
2022-11-21T05:06:08.782Z,96658.28
2022-11-21T05:08:36.503Z,96649.47
2022-11-21T05:11:23.047Z,96646.22
2022-11-21T05:13:54.364Z,96653.31
2022-11-21T05:16:22.144Z,96649.47
2022-11-21T05:18:49.907Z,96661.88
2022-11-21T05:21:17.710Z,96667.72
2022-11-21T05:23:45.523Z,96668.13
2022-11-21T05:26:13.298Z,96671.50
2022-11-21T05:28:41.101Z,96667.81
2022-11-21T05:31:08.876Z,96675.59
2022-11-21T05:33:36.624Z,96669.06
2022-11-21T05:36:04.887Z,96673.19
2022-11-21T05:38:32.650Z,96670.19
2022-11-21T05:41:00.428Z,96661.31
2022-11-21T05:43:46.457Z,96666.72
2022-11-21T05:46:21.834Z,96676.16
2022-11-21T05:48:50.755Z,96681.72
2022-11-21T05:51:19.574Z,96669.91
2022-11-21T05:53:48.471Z,96678.53
2022-11-21T05:56:19.595Z,96676.53
2022-11-21T05:58:47.443Z,96668.13
2022-11-21T06:01:15.939Z,96662.19
2022-11-21T06:03:43.734Z,96668.41
2022-11-21T06:06:19.680Z,96664.41
2022-11-21T06:08:49.967Z,96667.16
2022-11-21T06:11:17.962Z,96660.31
2022-11-21T06:13:46.008Z,96670.44
2022-11-21T06:16:17.187Z,96663.53
2022-11-21T06:18:48.179Z,96660.50
2022-11-21T06:21:25.108Z,96667.72
2022-11-21T06:23:56.487Z,96678.75
2022-11-21T06:26:27.835Z,96665.75
2022-11-21T06:28:55.727Z,96679.88
2022-11-21T06:31:27.085Z,96673.56
2022-11-21T06:33:58.151Z,96667.22
2022-11-21T06:36:27.009Z,96673.75
2022-11-21T06:38:56.579Z,96673.03
2022-11-21T06:41:27.204Z,96675.72
2022-11-21T06:43:54.962Z,96671.56
2022-11-21T06:46:22.758Z,96675.47
2022-11-21T06:48:50.492Z,96690.84
2022-11-21T06:51:20.198Z,96693.00
2022-11-21T06:54:01.641Z,96685.53
2022-11-21T06:56:31.539Z,96685.88
2022-11-21T06:58:59.887Z,96686.88
2022-11-21T07:01:27.961Z,96688.53
2022-11-21T07:03:56.190Z,96691.34
2022-11-21T07:06:24.429Z,96694.66
2022-11-21T07:11:45.081Z,96698.59
2022-11-21T07:14:12.878Z,96692.47
2022-11-21T07:16:40.632Z,96698.22
2022-11-21T07:19:08.354Z,96690.91
2022-11-21T07:21:36.109Z,96680.72
2022-11-21T07:24:04.354Z,96684.13
2022-11-21T07:26:32.090Z,96693.84
2022-11-21T07:28:59.970Z,96688.34
2022-11-21T07:31:27.741Z,96683.03
2022-11-21T07:33:55.595Z,96677.56
2022-11-21T07:36:23.461Z,96689.34
2022-11-21T07:38:51.262Z,96686.56
2022-11-21T07:41:19.029Z,96674.13
2022-11-21T07:43:46.776Z,96679.44
2022-11-21T07:46:14.540Z,96687.53
2022-11-21T07:48:43.002Z,96674.25
2022-11-21T07:51:11.205Z,96672.75
2022-11-21T07:53:39.027Z,96681.03
2022-11-21T07:56:09.561Z,96685.53
2022-11-21T07:58:37.392Z,96680.34
2022-11-21T08:01:07.113Z,96684.25
2022-11-21T08:03:35.211Z,96685.22
2022-11-21T08:06:04.984Z,96689.50
2022-11-21T08:08:32.764Z,96697.56
2022-11-21T08:11:06.056Z,96688.72
2022-11-21T08:13:35.401Z,96683.75
2022-11-21T08:16:04.974Z,96685.75
2022-11-21T08:18:33.299Z,96683.22
2022-11-21T08:21:05.196Z,96676.22
2022-11-21T08:23:33.018Z,96675.34
2022-11-21T08:26:01.048Z,96671.19
2022-11-21T08:28:29.017Z,96673.06
2022-11-21T08:30:56.895Z,96672.38
2022-11-21T08:33:24.608Z,96673.81
2022-11-21T08:35:52.377Z,96674.84
2022-11-21T08:38:20.122Z,96666.31
2022-11-21T08:41:07.840Z,96667.22
2022-11-21T08:43:35.586Z,96662.75
2022-11-21T08:46:03.401Z,96664.03
2022-11-21T08:48:31.227Z,96660.13
2022-11-21T08:50:58.993Z,96671.81
2022-11-21T08:53:27.097Z,96655.53
2022-11-21T08:55:55.022Z,96662.28
2022-11-21T08:58:22.749Z,96670.78
2022-11-21T09:00:50.522Z,96661.09
2022-11-21T09:03:23.626Z,96662.69
2022-11-21T09:05:55.740Z,96654.34
2022-11-21T09:08:23.979Z,96661.63
2022-11-21T09:10:52.308Z,96650.44
2022-11-21T09:13:20.135Z,96647.03
2022-11-21T09:16:06.823Z,96647.25
2022-11-21T09:18:34.861Z,96645.03
2022-11-21T09:21:02.598Z,96639.31
2022-11-21T09:23:30.324Z,96652.38
2022-11-21T09:26:00.483Z,96644.41
2022-11-21T09:28:28.261Z,96637.19
2022-11-21T09:30:56.052Z,96642.09
2022-11-21T09:33:24.530Z,96652.66
2022-11-21T09:35:52.370Z,96663.75
2022-11-21T09:38:24.026Z,96650.56
2022-11-21T09:40:56.552Z,96652.56
2022-11-21T09:43:39.160Z,96653.31
2022-11-21T09:46:17.626Z,96648.25
2022-11-21T09:49:05.202Z,96648.16
2022-11-21T09:51:34.630Z,96647.69
2022-11-21T09:54:29.027Z,96640.34
2022-11-21T09:56:56.861Z,96639.94
2022-11-21T09:59:37.555Z,96635.44
2022-11-21T10:02:21.480Z,96624.84
2022-11-21T10:04:51.344Z,96624.09
2022-11-21T10:07:29.085Z,96618.47
2022-11-21T10:10:56.726Z,96609.53
2022-11-21T10:14:07.421Z,96602.94
2022-11-21T10:17:08.424Z,96591.78
2022-11-21T10:19:54.275Z,96582.72
2022-11-21T10:22:49.303Z,96583.94
2022-11-21T10:25:28.076Z,96588.31
2022-11-21T10:28:58.776Z,96580.22
2022-11-21T10:31:31.332Z,96588.34
2022-11-21T10:34:00.405Z,96592.97
2022-11-21T10:36:36.676Z,96578.94
2022-11-21T10:39:33.422Z,96564.44
2022-11-21T10:42:24.408Z,96569.66
2022-11-21T10:45:11.357Z,96558.41
2022-11-21T10:47:39.126Z,96568.53
2022-11-21T10:50:09.843Z,96554.56
2022-11-21T10:53:01.541Z,96551.31
2022-11-21T10:55:29.332Z,96546.28
2022-11-21T10:57:57.096Z,96533.63
2022-11-21T11:00:27.519Z,96534.25
2022-11-21T11:03:16.553Z,96527.44
2022-11-21T11:05:59.534Z,96531.31
2022-11-21T11:08:28.743Z,96521.44
2022-11-21T11:11:07.571Z,96509.75
2022-11-21T11:13:53.473Z,96509.13
2022-11-21T11:16:22.591Z,96491.41
2022-11-21T11:19:00.693Z,96485.75
2022-11-21T11:21:47.724Z,96481.69
2022-11-21T11:24:15.404Z,96480.59
2022-11-21T11:26:49.537Z,96480.00
2022-11-21T11:29:30.276Z,96476.22
2022-11-21T11:32:19.454Z,96464.47
2022-11-21T11:35:03.131Z,96461.56
2022-11-21T11:37:41.694Z,96454.88
2022-11-21T11:40:40.148Z,96444.28
2022-11-21T11:44:04.984Z,96446.41
2022-11-21T11:47:20.869Z,96437.09
2022-11-21T11:50:26.896Z,96425.88
2022-11-21T11:53:35.084Z,96426.78
2022-11-21T11:56:19.129Z,96426.25
2022-11-21T11:59:01.183Z,96416.03
2022-11-21T12:01:49.843Z,96421.25
2022-11-21T12:04:22.749Z,96408.38
2022-11-21T12:08:19.902Z,96414.16
2022-11-21T12:11:12.458Z,96398.63
2022-11-21T12:13:41.512Z,96399.28
2022-11-21T12:16:14.494Z,96399.75
2022-11-21T12:19:14.047Z,96396.72
2022-11-21T12:21:42.096Z,96395.78
2022-11-21T12:24:12.264Z,96386.16
2022-11-21T12:27:31.269Z,96379.25
2022-11-21T12:30:35.866Z,96358.72
2022-11-21T12:33:17.672Z,96358.13
2022-11-21T12:36:17.938Z,96355.47
2022-11-21T12:39:12.475Z,96354.44
2022-11-21T12:42:13.096Z,96354.03
2022-11-21T12:44:59.980Z,96343.75
2022-11-21T12:48:11.965Z,96344.78
2022-11-21T12:51:30.660Z,96332.81
2022-11-21T12:54:33.288Z,96334.00
2022-11-21T12:57:11.666Z,96313.63
2022-11-21T13:00:13.936Z,96303.75
2022-11-21T13:03:18.190Z,96301.13
2022-11-21T13:05:53.971Z,96293.56
2022-11-21T13:08:29.768Z,96284.13
2022-11-21T13:12:14.441Z,96280.63
2022-11-21T13:15:16.396Z,96274.19
2022-11-21T13:18:13.848Z,96271.50
2022-11-21T13:20:52.017Z,96263.25
2022-11-21T13:23:43.125Z,96270.00
2022-11-21T13:26:25.835Z,96274.44
2022-11-21T13:29:14.406Z,96262.81
2022-11-21T13:31:43.668Z,96264.38
2022-11-21T13:34:41.322Z,96257.50
2022-11-21T13:37:09.189Z,96255.31
2022-11-21T13:39:38.442Z,96255.06
2022-11-21T13:42:30.147Z,96248.97
2022-11-21T13:44:58.957Z,96239.50
2022-11-21T13:47:26.632Z,96232.50
2022-11-21T13:50:23.518Z,96222.88
2022-11-21T13:53:58.058Z,96224.25
2022-11-21T13:56:41.405Z,96211.75
2022-11-21T13:59:37.532Z,96217.00
2022-11-21T14:02:41.778Z,96220.16
2022-11-21T14:05:39.960Z,96202.94
2022-11-21T14:08:25.318Z,96204.84
2022-11-21T14:10:56.165Z,96202.00
2022-11-21T14:13:37.245Z,96199.16
2022-11-21T14:16:19.882Z,96189.94
2022-11-21T14:18:48.236Z,96185.66
2022-11-21T14:21:28.557Z,96184.88
2022-11-21T14:24:06.521Z,96188.41
2022-11-21T14:26:42.957Z,96187.41
2022-11-21T14:29:40.764Z,96184.34
2022-11-21T14:32:15.521Z,96174.88
2022-11-21T14:34:43.337Z,96168.53
2022-11-21T14:37:13.583Z,96166.06
2022-11-21T14:39:44.830Z,96164.03
2022-11-21T14:42:17.331Z,96158.50
2022-11-21T14:44:46.301Z,96152.41
2022-11-21T14:47:25.762Z,96144.19
2022-11-21T14:49:58.541Z,96140.31
2022-11-21T14:52:33.988Z,96138.88
2022-11-21T14:55:30.544Z,96139.31
2022-11-21T14:58:02.948Z,96127.00
2022-11-21T15:03:23.250Z,96103.00
2022-11-21T15:06:10.685Z,96098.09
2022-11-21T15:11:38.923Z,96072.47
2022-11-21T15:14:43.469Z,96057.75
2022-11-21T15:17:20.687Z,96049.53
2022-11-21T15:20:18.528Z,96044.25
2022-11-21T15:22:48.114Z,96033.03
2022-11-21T15:25:22.854Z,96029.53
2022-11-21T15:27:53.046Z,96020.53
2022-11-21T15:30:26.276Z,96019.53
2022-11-21T15:33:10.761Z,96012.16
2022-11-21T15:35:38.416Z,96015.66
2022-11-21T15:38:40.558Z,96003.34
2022-11-21T15:41:10.149Z,95988.56
2022-11-21T15:43:51.549Z,95987.34
2022-11-21T15:46:25.194Z,95978.34
2022-11-21T15:49:31.067Z,95968.13
2022-11-21T15:52:10.614Z,95967.28
2022-11-21T15:54:38.345Z,95961.75
2022-11-21T15:57:06.473Z,95958.06
2022-11-21T15:59:36.499Z,95945.97
2022-11-21T16:02:05.663Z,95942.53
2022-11-21T16:04:33.641Z,95939.66
2022-11-21T16:07:01.516Z,95935.97
2022-11-21T16:09:29.797Z,95923.91
2022-11-21T16:11:57.678Z,95931.50
2022-11-21T16:14:25.657Z,95925.94
2022-11-21T16:16:53.404Z,95930.91
2022-11-21T16:19:21.143Z,95922.69
2022-11-21T16:21:48.939Z,95919.44
2022-11-21T16:24:16.775Z,95914.09
2022-11-21T16:26:44.583Z,95898.53
2022-11-21T16:29:12.435Z,95890.38
2022-11-21T16:31:40.250Z,95876.84
2022-11-21T16:34:08.368Z,95876.22
2022-11-21T16:36:36.352Z,95867.03
2022-11-21T16:39:09.935Z,95867.22
2022-11-21T16:41:41.044Z,95870.31
2022-11-21T16:44:16.477Z,95875.00
2022-11-21T16:46:48.219Z,95880.13
2022-11-21T16:49:16.198Z,95871.75
2022-11-21T16:51:44.095Z,95870.31
2022-11-21T16:54:11.830Z,95866.44
2022-11-21T16:56:39.611Z,95852.91
2022-11-21T16:59:08.552Z,95852.28
2022-11-21T17:01:36.479Z,95838.38
2022-11-21T17:04:04.617Z,95836.75
2022-11-21T17:06:32.456Z,95826.91
2022-11-21T17:09:01.984Z,95829.78
2022-11-21T17:11:32.149Z,95839.81
2022-11-21T17:14:03.104Z,95838.19
2022-11-21T17:16:32.651Z,95819.16
2022-11-21T17:19:02.457Z,95816.69
2022-11-21T17:21:30.956Z,95817.69
2022-11-21T17:23:59.487Z,95825.06
2022-11-21T17:26:29.925Z,95844.50
2022-11-21T17:29:00.975Z,95843.88
2022-11-21T17:31:29.624Z,95830.38
2022-11-21T17:33:59.019Z,95798.44
2022-11-21T17:36:29.243Z,95789.03
2022-11-21T17:38:57.187Z,95783.91
2022-11-21T17:41:27.436Z,95797.81
2022-11-21T17:43:59.688Z,95796.00
2022-11-21T17:46:28.461Z,95795.16
2022-11-21T17:48:59.099Z,95809.75
2022-11-21T17:51:32.371Z,95807.47
2022-11-21T17:54:01.733Z,95800.69
2022-11-21T17:56:32.876Z,95796.03
2022-11-21T17:59:01.147Z,95785.38
2022-11-21T18:01:29.506Z,95778.41
2022-11-21T18:04:13.364Z,95771.03
2022-11-21T18:06:42.612Z,95772.69
2022-11-21T18:09:11.955Z,95776.38
2022-11-21T18:11:40.972Z,95780.44
2022-11-21T18:14:12.469Z,95767.56
2022-11-21T18:16:43.667Z,95764.06
2022-11-21T18:19:14.415Z,95755.88
2022-11-21T18:21:42.465Z,95751.59
2022-11-21T18:24:10.651Z,95772.88
2022-11-21T18:26:39.862Z,95778.41
2022-11-21T18:31:57.970Z,95776.97
2022-11-21T18:34:50.961Z,95767.97
2022-11-21T18:37:18.716Z,95766.34
2022-11-21T18:39:46.456Z,95756.13
2022-11-21T18:42:14.206Z,95767.97
2022-11-21T18:44:41.943Z,95769.59
2022-11-21T18:47:19.965Z,95764.28
2022-11-21T18:49:48.875Z,95751.78
2022-11-21T18:52:16.713Z,95747.50
2022-11-21T18:54:45.299Z,95750.38
2022-11-21T18:57:13.175Z,95752.22
2022-11-21T18:59:40.964Z,95752.63
2022-11-21T19:02:10.360Z,95744.84
2022-11-21T19:04:38.151Z,95743.41
2022-11-21T19:07:05.964Z,95734.44
2022-11-21T19:09:34.571Z,95728.88
2022-11-21T19:12:02.605Z,95723.34
2022-11-21T19:14:30.626Z,95718.03
2022-11-21T19:16:58.618Z,95722.34
2022-11-21T19:19:36.184Z,95722.56
2022-11-21T19:22:06.200Z,95713.97
2022-11-21T19:24:33.999Z,95716.00
2022-11-21T19:27:02.117Z,95709.88
2022-11-21T19:29:30.448Z,95709.88
2022-11-21T19:31:58.604Z,95718.06
2022-11-21T19:34:26.408Z,95712.75
2022-11-21T19:36:54.343Z,95705.38
2022-11-21T19:39:22.099Z,95711.31
2022-11-21T19:41:50.157Z,95703.72
2022-11-21T19:44:17.933Z,95707.19
2022-11-21T19:46:45.728Z,95700.03
2022-11-21T19:49:13.596Z,95702.47
2022-11-21T19:51:42.513Z,95701.88
2022-11-21T19:54:13.663Z,95691.63
2022-11-21T19:56:41.497Z,95690.44
2022-11-21T19:59:12.732Z,95695.53
2022-11-21T20:01:41.131Z,95699.22
2022-11-21T20:04:11.105Z,95705.16
2022-11-21T20:06:42.372Z,95698.59
2022-11-21T20:09:19.375Z,95697.97
2022-11-21T20:11:49.966Z,95689.19
2022-11-21T20:14:22.385Z,95701.69
2022-11-21T20:16:52.865Z,95708.41
2022-11-21T20:19:24.245Z,95713.53
2022-11-21T20:21:52.726Z,95710.06
2022-11-21T20:24:20.922Z,95707.00
2022-11-21T20:26:48.913Z,95708.25
2022-11-21T20:29:16.795Z,95713.13
2022-11-21T20:31:48.560Z,95706.19
2022-11-21T20:34:16.743Z,95701.47
2022-11-21T20:36:45.361Z,95696.75
2022-11-21T20:39:16.783Z,95694.50
2022-11-21T20:41:46.657Z,95695.13
2022-11-21T20:47:09.665Z,95697.75
2022-11-21T20:49:37.527Z,95706.34
2022-11-21T20:54:53.175Z,95697.34
2022-11-21T20:57:20.942Z,95695.88
2022-11-21T20:59:48.708Z,95701.22
2022-11-21T21:02:16.509Z,95705.53
2022-11-21T21:04:44.267Z,95693.47
2022-11-21T21:07:12.336Z,95695.28
2022-11-21T21:09:40.258Z,95691.22
2022-11-21T21:12:08.903Z,95689.78
2022-11-21T21:14:36.766Z,95684.69
2022-11-21T21:17:04.591Z,95695.72
2022-11-21T21:19:32.674Z,95676.91
2022-11-21T21:22:00.635Z,95685.69
2022-11-21T21:24:28.437Z,95676.69
2022-11-21T21:26:56.210Z,95683.88
2022-11-21T21:29:24.000Z,95672.63
2022-11-21T21:31:52.733Z,95670.31
2022-11-21T21:34:22.323Z,95671.78
2022-11-21T21:36:51.077Z,95676.47
2022-11-21T21:39:19.326Z,95672.19
2022-11-21T21:41:47.911Z,95675.44
2022-11-21T21:44:16.569Z,95679.31
2022-11-21T21:46:45.054Z,95665.41
2022-11-21T21:49:13.392Z,95655.56
2022-11-21T21:51:41.579Z,95650.06
2022-11-21T21:54:20.533Z,95658.44
2022-11-21T21:56:49.744Z,95658.22
2022-11-21T21:59:18.420Z,95653.91
2022-11-21T22:01:46.511Z,95657.44
2022-11-21T22:04:14.627Z,95660.91
2022-11-21T22:06:42.447Z,95655.16
2022-11-21T22:09:10.416Z,95677.88
2022-11-21T22:11:39.281Z,95666.44
2022-11-21T22:14:12.459Z,95669.72
2022-11-21T22:16:41.270Z,95671.53
2022-11-21T22:19:09.841Z,95673.59
2022-11-21T22:21:39.157Z,95669.72
2022-11-21T22:24:25.501Z,95672.19
2022-11-21T22:26:53.990Z,95668.50
2022-11-21T22:29:21.736Z,95672.59
2022-11-21T22:31:50.927Z,95670.94
2022-11-21T22:34:18.851Z,95670.94
2022-11-21T22:36:47.006Z,95672.38
2022-11-21T22:39:15.833Z,95665.22
2022-11-21T22:41:43.707Z,95670.31
2022-11-21T22:44:11.655Z,95668.69
2022-11-21T22:46:39.459Z,95669.72
2022-11-21T22:49:07.189Z,95670.72
2022-11-21T22:51:35.107Z,95665.25
2022-11-21T22:54:02.883Z,95663.78
2022-11-21T22:56:30.694Z,95660.72
2022-11-21T22:58:58.427Z,95654.00
2022-11-21T23:01:26.858Z,95654.81
2022-11-21T23:03:55.797Z,95654.41
2022-11-21T23:06:26.496Z,95652.53
2022-11-21T23:08:57.672Z,95648.03
2022-11-21T23:11:28.853Z,95638.63
2022-11-21T23:13:57.638Z,95637.03
2022-11-21T23:16:26.282Z,95624.94
2022-11-21T23:18:56.719Z,95614.13
2022-11-21T23:21:24.806Z,95617.59
2022-11-21T23:23:52.796Z,95612.69
2022-11-21T23:26:20.686Z,95612.06
2022-11-21T23:28:48.668Z,95610.22
2022-11-21T23:31:17.168Z,95619.41
2022-11-21T23:33:45.009Z,95628.59
2022-11-21T23:36:12.838Z,95627.78
2022-11-21T23:38:41.261Z,95639.25
2022-11-21T23:41:09.177Z,95641.91
2022-11-21T23:43:37.048Z,95650.94
2022-11-21T23:46:04.880Z,95640.91
2022-11-21T23:48:32.698Z,95635.56
2022-11-21T23:51:00.527Z,95625.53
2022-11-21T23:53:28.417Z,95618.41
2022-11-21T23:55:56.310Z,95621.25
2022-11-21T23:58:24.099Z,95625.53
